5NK1 weather

Toggenburg Farms Airport
Newark, New York, United States

Public forecast

Using degrees Fahrenheit for public forecast. Weather courtesy of forecast.io.

Closest aviation weather report (METAR) to Toggenburg Farms Airport

Closest report is Greater Rochester International Airport, 27.1 nm (50.2 km) W. Retrieved 2019/10/15 20:54 UTC (19 minutes ago):

KROC 152054Z 13005KT 10SM BKN250 16/02 A2999 RMK AO2 SLP161 T01610022 56028

Closest aviation forecast (TAF) to Toggenburg Farms Airport

Forecast is more than 6 hours old.

Closest forecast is Greater Rochester International Airport, 27.1 nm (50.2 km) W. Retrieved 2019/10/15 12:22 UTC (9 hours ago):

TAF KROC 151120Z 1512/1612 22006KT P6SM SCT250 FM151900 19006KT P6SM FEW200 FM152200 13005KT P6SM FEW250 FM160500 15008KT P6SM BKN150 WS020/19035KT FM161000 17015G31KT P6SM BKN070